sensor_id;sensor_type;location;lat;lon;timestamp;pressure;altitude;pressure_sealevel;temperature;humidity
75991;BME280;64673;52.276;10.560;2023-06-10T00:01:27;100882.03;;;15.67;64.69
75991;BME280;64673;52.276;10.560;2023-06-10T00:03:53;100873.25;;;15.51;66.33
75991;BME280;64673;52.276;10.560;2023-06-10T00:06:19;100879.94;;;15.59;66.23
75991;BME280;64673;52.276;10.560;2023-06-10T00:08:44;100882.38;;;15.60;65.46
75991;BME280;64673;52.276;10.560;2023-06-10T00:11:12;100884.19;;;15.46;67.32
75991;BME280;64673;52.276;10.560;2023-06-10T00:13:40;100880.00;;;15.54;66.71
75991;BME280;64673;52.276;10.560;2023-06-10T00:16:05;100881.03;;;15.58;65.76
75991;BME280;64673;52.276;10.560;2023-06-10T00:18:31;100876.47;;;15.34;67.96
75991;BME280;64673;52.276;10.560;2023-06-10T00:20:57;100883.53;;;15.35;68.00
75991;BME280;64673;52.276;10.560;2023-06-10T00:23:28;100869.63;;;15.18;69.08
75991;BME280;64673;52.276;10.560;2023-06-10T00:25:58;100879.69;;;15.18;69.47
75991;BME280;64673;52.276;10.560;2023-06-10T00:28:24;100873.25;;;15.32;68.11
75991;BME280;64673;52.276;10.560;2023-06-10T00:30:50;100883.28;;;15.13;69.86
75991;BME280;64673;52.276;10.560;2023-06-10T00:33:15;100878.44;;;15.48;68.77
75991;BME280;64673;52.276;10.560;2023-06-10T00:35:41;100879.06;;;15.45;69.40
75991;BME280;64673;52.276;10.560;2023-06-10T00:38:06;100880.56;;;15.56;69.22
75991;BME280;64673;52.276;10.560;2023-06-10T00:40:35;100881.47;;;15.46;69.86
75991;BME280;64673;52.276;10.560;2023-06-10T00:43:03;100876.25;;;15.31;70.86
75991;BME280;64673;52.276;10.560;2023-06-10T00:45:29;100877.50;;;15.38;70.07
75991;BME280;64673;52.276;10.560;2023-06-10T00:47:54;100883.06;;;15.28;71.22
75991;BME280;64673;52.276;10.560;2023-06-10T00:50:20;100885.03;;;15.04;72.99
75991;BME280;64673;52.276;10.560;2023-06-10T00:52:46;100885.72;;;15.15;71.84
75991;BME280;64673;52.276;10.560;2023-06-10T00:55:15;100879.63;;;15.04;73.63
75991;BME280;64673;52.276;10.560;2023-06-10T00:57:41;100884.16;;;15.09;73.67
75991;BME280;64673;52.276;10.560;2023-06-10T01:00:10;100888.06;;;15.21;72.36
75991;BME280;64673;52.276;10.560;2023-06-10T01:02:35;100892.38;;;15.04;73.85
75991;BME280;64673;52.276;10.560;2023-06-10T01:05:01;100890.69;;;14.84;74.84
75991;BME280;64673;52.276;10.560;2023-06-10T01:10:20;100888.63;;;14.76;75.08
75991;BME280;64673;52.276;10.560;2023-06-10T01:15:19;100891.16;;;14.43;78.07
75991;BME280;64673;52.276;10.560;2023-06-10T01:18:03;100891.06;;;14.77;75.84
75991;BME280;64673;52.276;10.560;2023-06-10T01:20:31;100893.88;;;14.43;77.81
75991;BME280;64673;52.276;10.560;2023-06-10T01:22:58;100892.72;;;14.49;77.52
75991;BME280;64673;52.276;10.560;2023-06-10T01:25:26;100887.75;;;14.27;78.54
75991;BME280;64673;52.276;10.560;2023-06-10T01:28:11;100889.03;;;14.35;78.42
75991;BME280;64673;52.276;10.560;2023-06-10T01:31:07;100885.44;;;14.45;78.08
75991;BME280;64673;52.276;10.560;2023-06-10T01:33:40;100889.53;;;14.42;78.22
75991;BME280;64673;52.276;10.560;2023-06-10T01:36:07;100890.13;;;14.34;78.72
75991;BME280;64673;52.276;10.560;2023-06-10T01:38:36;100893.38;;;14.07;80.36
75991;BME280;64673;52.276;10.560;2023-06-10T01:41:05;100896.97;;;13.98;80.31
75991;BME280;64673;52.276;10.560;2023-06-10T01:43:36;100902.09;;;13.99;81.58
75991;BME280;64673;52.276;10.560;2023-06-10T01:46:02;100900.25;;;13.95;81.68
75991;BME280;64673;52.276;10.560;2023-06-10T01:48:27;100899.19;;;13.90;82.00
75991;BME280;64673;52.276;10.560;2023-06-10T01:50:53;100895.94;;;13.88;82.31
75991;BME280;64673;52.276;10.560;2023-06-10T01:53:19;100897.47;;;14.00;81.63
75991;BME280;64673;52.276;10.560;2023-06-10T01:55:45;100898.16;;;13.86;82.86
75991;BME280;64673;52.276;10.560;2023-06-10T01:58:10;100898.25;;;13.71;83.16
75991;BME280;64673;52.276;10.560;2023-06-10T02:00:35;100901.50;;;13.68;83.68
75991;BME280;64673;52.276;10.560;2023-06-10T02:03:01;100906.44;;;13.61;84.15
75991;BME280;64673;52.276;10.560;2023-06-10T02:05:26;100902.44;;;13.53;84.57
75991;BME280;64673;52.276;10.560;2023-06-10T02:07:51;100910.44;;;13.74;83.18
75991;BME280;64673;52.276;10.560;2023-06-10T02:10:17;100902.19;;;13.50;84.44
75991;BME280;64673;52.276;10.560;2023-06-10T02:12:42;100907.06;;;13.53;84.56
75991;BME280;64673;52.276;10.560;2023-06-10T02:15:07;100905.63;;;13.66;83.32
75991;BME280;64673;52.276;10.560;2023-06-10T02:17:33;100900.50;;;13.59;83.96
75991;BME280;64673;52.276;10.560;2023-06-10T02:19:58;100906.78;;;13.88;82.08
75991;BME280;64673;52.276;10.560;2023-06-10T02:22:24;100905.56;;;13.71;82.95
75991;BME280;64673;52.276;10.560;2023-06-10T02:24:50;100909.19;;;13.95;81.27
75991;BME280;64673;52.276;10.560;2023-06-10T02:27:16;100905.25;;;13.77;82.24
75991;BME280;64673;52.276;10.560;2023-06-10T02:29:42;100912.34;;;13.68;83.25
75991;BME280;64673;52.276;10.560;2023-06-10T02:32:08;100911.44;;;13.44;84.08
75991;BME280;64673;52.276;10.560;2023-06-10T02:34:34;100913.06;;;13.45;84.29
75991;BME280;64673;52.276;10.560;2023-06-10T02:37:00;100916.75;;;13.64;83.09
75991;BME280;64673;52.276;10.560;2023-06-10T02:39:26;100918.44;;;13.50;83.82
75991;BME280;64673;52.276;10.560;2023-06-10T02:41:51;100922.97;;;13.65;83.19
75991;BME280;64673;52.276;10.560;2023-06-10T02:44:18;100916.81;;;13.54;84.11
75991;BME280;64673;52.276;10.560;2023-06-10T02:46:43;100922.09;;;13.74;82.47
75991;BME280;64673;52.276;10.560;2023-06-10T02:49:09;100921.41;;;13.53;84.43
75991;BME280;64673;52.276;10.560;2023-06-10T02:51:34;100921.72;;;13.47;84.74
75991;BME280;64673;52.276;10.560;2023-06-10T02:54:00;100917.44;;;13.36;84.54
75991;BME280;64673;52.276;10.560;2023-06-10T02:56:26;100922.13;;;13.15;86.31
75991;BME280;64673;52.276;10.560;2023-06-10T02:58:51;100935.41;;;13.22;86.24
75991;BME280;64673;52.276;10.560;2023-06-10T03:01:17;100938.38;;;13.10;86.46
75991;BME280;64673;52.276;10.560;2023-06-10T03:03:44;100942.72;;;13.11;86.51
75991;BME280;64673;52.276;10.560;2023-06-10T03:06:13;100963.03;;;13.03;86.87
75991;BME280;64673;52.276;10.560;2023-06-10T03:08:39;100968.53;;;12.73;88.60
75991;BME280;64673;52.276;10.560;2023-06-10T03:11:05;100946.63;;;12.79;88.21
75991;BME280;64673;52.276;10.560;2023-06-10T03:13:31;100958.28;;;12.65;89.17
75991;BME280;64673;52.276;10.560;2023-06-10T03:15:57;100952.19;;;13.03;86.50
75991;BME280;64673;52.276;10.560;2023-06-10T03:18:25;100944.88;;;13.68;81.49
75991;BME280;64673;52.276;10.560;2023-06-10T03:20:51;100953.28;;;13.23;85.59
75991;BME280;64673;52.276;10.560;2023-06-10T03:23:17;100951.16;;;12.99;86.87
75991;BME280;64673;52.276;10.560;2023-06-10T03:25:43;100942.53;;;12.82;87.87
75991;BME280;64673;52.276;10.560;2023-06-10T03:28:09;100939.28;;;12.90;86.95
75991;BME280;64673;52.276;10.560;2023-06-10T03:30:34;100937.84;;;13.23;84.91
75991;BME280;64673;52.276;10.560;2023-06-10T03:32:59;100935.94;;;13.13;85.50
75991;BME280;64673;52.276;10.560;2023-06-10T03:35:26;100939.38;;;13.39;84.13
75991;BME280;64673;52.276;10.560;2023-06-10T03:37:51;100944.06;;;13.24;84.91
75991;BME280;64673;52.276;10.560;2023-06-10T03:40:17;100940.28;;;13.04;86.73
75991;BME280;64673;52.276;10.560;2023-06-10T03:42:42;100933.72;;;13.31;85.06
75991;BME280;64673;52.276;10.560;2023-06-10T03:45:09;100931.34;;;13.09;86.35
75991;BME280;64673;52.276;10.560;2023-06-10T03:47:35;100928.38;;;13.10;85.91
75991;BME280;64673;52.276;10.560;2023-06-10T03:50:04;100925.50;;;13.46;83.40
75991;BME280;64673;52.276;10.560;2023-06-10T03:52:30;100934.75;;;13.45;84.17
75991;BME280;64673;52.276;10.560;2023-06-10T03:54:55;100936.75;;;13.24;85.18
75991;BME280;64673;52.276;10.560;2023-06-10T03:57:20;100936.44;;;13.26;85.63
75991;BME280;64673;52.276;10.560;2023-06-10T03:59:46;100940.28;;;13.14;86.08
75991;BME280;64673;52.276;10.560;2023-06-10T04:02:11;100934.88;;;13.14;86.42
75991;BME280;64673;52.276;10.560;2023-06-10T04:04:36;100940.50;;;13.28;85.77
75991;BME280;64673;52.276;10.560;2023-06-10T04:07:03;100939.72;;;13.17;86.61
75991;BME280;64673;52.276;10.560;2023-06-10T04:09:29;100938.09;;;13.16;86.32
75991;BME280;64673;52.276;10.560;2023-06-10T04:11:54;100937.03;;;13.23;85.37
75991;BME280;64673;52.276;10.560;2023-06-10T04:14:19;100932.66;;;13.27;85.20
75991;BME280;64673;52.276;10.560;2023-06-10T04:16:45;100931.88;;;13.21;86.41
75991;BME280;64673;52.276;10.560;2023-06-10T04:19:10;100930.53;;;13.13;86.32
75991;BME280;64673;52.276;10.560;2023-06-10T04:21:35;100943.25;;;13.13;86.62
75991;BME280;64673;52.276;10.560;2023-06-10T04:24:01;100940.28;;;13.19;85.85
75991;BME280;64673;52.276;10.560;2023-06-10T04:26:27;100943.19;;;13.33;85.07
75991;BME280;64673;52.276;10.560;2023-06-10T04:28:53;100944.88;;;13.24;85.95
75991;BME280;64673;52.276;10.560;2023-06-10T04:31:18;100942.66;;;13.26;86.24
75991;BME280;64673;52.276;10.560;2023-06-10T04:33:43;100937.34;;;13.60;83.03
75991;BME280;64673;52.276;10.560;2023-06-10T04:36:09;100944.47;;;13.46;84.28
75991;BME280;64673;52.276;10.560;2023-06-10T04:38:34;100944.25;;;13.37;84.93
75991;BME280;64673;52.276;10.560;2023-06-10T04:40:59;100947.16;;;13.51;84.38
75991;BME280;64673;52.276;10.560;2023-06-10T04:43:25;100951.06;;;13.35;85.86
75991;BME280;64673;52.276;10.560;2023-06-10T04:45:50;100955.41;;;13.31;86.24
75991;BME280;64673;52.276;10.560;2023-06-10T04:48:16;100952.66;;;13.36;85.70
75991;BME280;64673;52.276;10.560;2023-06-10T04:50:41;100959.72;;;13.81;81.74
75991;BME280;64673;52.276;10.560;2023-06-10T04:53:06;100936.28;;;13.56;85.87
75991;BME280;64673;52.276;10.560;2023-06-10T04:55:32;100947.63;;;13.63;85.28
75991;BME280;64673;52.276;10.560;2023-06-10T04:57:59;100961.66;;;13.75;84.90
75991;BME280;64673;52.276;10.560;2023-06-10T05:00:24;100956.06;;;14.01;81.33
75991;BME280;64673;52.276;10.560;2023-06-10T05:02:49;100955.97;;;13.72;84.04
75991;BME280;64673;52.276;10.560;2023-06-10T05:05:16;100960.97;;;13.54;85.64
75991;BME280;64673;52.276;10.560;2023-06-10T05:07:42;100960.03;;;13.74;84.37
75991;BME280;64673;52.276;10.560;2023-06-10T05:10:07;100958.53;;;13.53;84.67
75991;BME280;64673;52.276;10.560;2023-06-10T05:12:33;100957.69;;;13.57;85.36
75991;BME280;64673;52.276;10.560;2023-06-10T05:14:58;100965.53;;;13.59;85.38
75991;BME280;64673;52.276;10.560;2023-06-10T05:17:23;100968.53;;;13.57;84.45
75991;BME280;64673;52.276;10.560;2023-06-10T05:19:50;100972.00;;;13.68;85.33
75991;BME280;64673;52.276;10.560;2023-06-10T05:22:16;100960.28;;;13.78;83.22
75991;BME280;64673;52.276;10.560;2023-06-10T05:24:43;100961.59;;;13.85;83.30
75991;BME280;64673;52.276;10.560;2023-06-10T05:27:09;100969.75;;;13.80;83.80
75991;BME280;64673;52.276;10.560;2023-06-10T05:29:34;100958.41;;;13.73;83.99
75991;BME280;64673;52.276;10.560;2023-06-10T05:32:00;100954.09;;;13.72;84.94
75991;BME280;64673;52.276;10.560;2023-06-10T05:34:31;100955.56;;;13.93;84.03
75991;BME280;64673;52.276;10.560;2023-06-10T05:36:56;100961.41;;;14.11;83.06
75991;BME280;64673;52.276;10.560;2023-06-10T05:39:21;100960.16;;;13.98;84.04
75991;BME280;64673;52.276;10.560;2023-06-10T05:41:47;100957.44;;;14.32;82.20
75991;BME280;64673;52.276;10.560;2023-06-10T05:44:12;100960.31;;;14.12;83.52
75991;BME280;64673;52.276;10.560;2023-06-10T05:46:37;100960.59;;;14.49;81.48
75991;BME280;64673;52.276;10.560;2023-06-10T05:49:03;100959.56;;;14.69;81.84
75991;BME280;64673;52.276;10.560;2023-06-10T05:51:28;100958.13;;;14.77;81.89
75991;BME280;64673;52.276;10.560;2023-06-10T05:53:54;100965.59;;;14.90;79.68
75991;BME280;64673;52.276;10.560;2023-06-10T05:56:19;100953.00;;;14.99;79.95
75991;BME280;64673;52.276;10.560;2023-06-10T05:58:48;100949.88;;;15.34;77.13
75991;BME280;64673;52.276;10.560;2023-06-10T06:01:13;100940.41;;;15.08;79.72
75991;BME280;64673;52.276;10.560;2023-06-10T06:03:38;100946.06;;;14.88;80.74
75991;BME280;64673;52.276;10.560;2023-06-10T06:06:04;100946.19;;;14.78;80.63
75991;BME280;64673;52.276;10.560;2023-06-10T06:08:29;100956.00;;;14.97;79.39
75991;BME280;64673;52.276;10.560;2023-06-10T06:10:55;100959.59;;;14.93;80.43
75991;BME280;64673;52.276;10.560;2023-06-10T06:13:20;100955.97;;;14.74;81.52
75991;BME280;64673;52.276;10.560;2023-06-10T06:15:45;100951.66;;;14.73;81.29
75991;BME280;64673;52.276;10.560;2023-06-10T06:18:11;100961.47;;;14.69;81.36
75991;BME280;64673;52.276;10.560;2023-06-10T06:20:36;100963.84;;;14.75;81.35
75991;BME280;64673;52.276;10.560;2023-06-10T06:23:04;100964.19;;;14.69;82.05
75991;BME280;64673;52.276;10.560;2023-06-10T06:25:30;100953.78;;;14.76;81.36
75991;BME280;64673;52.276;10.560;2023-06-10T06:27:55;100965.34;;;14.86;81.05
75991;BME280;64673;52.276;10.560;2023-06-10T06:30:20;100963.44;;;14.87;81.44
75991;BME280;64673;52.276;10.560;2023-06-10T06:32:46;100954.75;;;15.14;80.43
75991;BME280;64673;52.276;10.560;2023-06-10T06:35:11;100956.56;;;15.18;80.53
75991;BME280;64673;52.276;10.560;2023-06-10T06:37:36;100960.84;;;15.24;80.30
75991;BME280;64673;52.276;10.560;2023-06-10T06:40:02;100959.25;;;15.23;79.44
75991;BME280;64673;52.276;10.560;2023-06-10T06:42:29;100961.16;;;15.23;79.77
75991;BME280;64673;52.276;10.560;2023-06-10T06:44:54;100970.09;;;15.23;80.31
75991;BME280;64673;52.276;10.560;2023-06-10T06:47:19;100964.69;;;15.42;78.32
75991;BME280;64673;52.276;10.560;2023-06-10T06:49:46;100964.22;;;15.59;76.85
75991;BME280;64673;52.276;10.560;2023-06-10T06:52:11;100967.63;;;15.69;77.69
75991;BME280;64673;52.276;10.560;2023-06-10T06:54:37;100963.78;;;15.89;76.10
75991;BME280;64673;52.276;10.560;2023-06-10T06:57:02;100961.13;;;16.03;77.23
75991;BME280;64673;52.276;10.560;2023-06-10T06:59:27;100969.75;;;15.91;77.49
75991;BME280;64673;52.276;10.560;2023-06-10T07:01:53;100968.94;;;15.91;77.21
75991;BME280;64673;52.276;10.560;2023-06-10T07:04:19;100972.66;;;16.14;76.29
75991;BME280;64673;52.276;10.560;2023-06-10T07:06:47;100974.53;;;16.32;75.68
75991;BME280;64673;52.276;10.560;2023-06-10T07:09:12;100980.78;;;16.32;76.22
75991;BME280;64673;52.276;10.560;2023-06-10T07:11:37;100972.00;;;16.22;76.55
75991;BME280;64673;52.276;10.560;2023-06-10T07:14:03;100983.16;;;16.39;76.14
75991;BME280;64673;52.276;10.560;2023-06-10T07:16:28;100982.63;;;16.37;75.59
75991;BME280;64673;52.276;10.560;2023-06-10T07:18:53;100992.66;;;16.55;75.82
75991;BME280;64673;52.276;10.560;2023-06-10T07:21:19;100992.53;;;16.65;74.39
75991;BME280;64673;52.276;10.560;2023-06-10T07:23:45;100985.38;;;16.69;74.97
75991;BME280;64673;52.276;10.560;2023-06-10T07:26:11;100987.38;;;16.64;76.06
75991;BME280;64673;52.276;10.560;2023-06-10T07:28:39;100982.47;;;16.79;75.17
75991;BME280;64673;52.276;10.560;2023-06-10T07:31:04;100984.41;;;16.60;75.52
75991;BME280;64673;52.276;10.560;2023-06-10T07:33:30;100988.94;;;16.83;75.34
75991;BME280;64673;52.276;10.560;2023-06-10T07:35:55;100985.50;;;16.92;73.44
75991;BME280;64673;52.276;10.560;2023-06-10T07:38:21;100981.06;;;16.96;75.18
75991;BME280;64673;52.276;10.560;2023-06-10T07:40:47;100977.84;;;16.94;76.02
75991;BME280;64673;52.276;10.560;2023-06-10T07:43:12;100981.38;;;17.22;75.47
75991;BME280;64673;52.276;10.560;2023-06-10T07:45:41;100982.69;;;17.24;73.29
75991;BME280;64673;52.276;10.560;2023-06-10T07:48:06;100971.75;;;17.38;73.03
75991;BME280;64673;52.276;10.560;2023-06-10T07:50:32;100980.16;;;17.69;72.24
75991;BME280;64673;52.276;10.560;2023-06-10T07:52:57;100983.47;;;17.66;72.91
75991;BME280;64673;52.276;10.560;2023-06-10T07:55:23;100980.53;;;17.62;73.43
75991;BME280;64673;52.276;10.560;2023-06-10T07:57:51;100965.41;;;17.42;73.20
75991;BME280;64673;52.276;10.560;2023-06-10T08:00:16;100979.72;;;17.75;72.01
75991;BME280;64673;52.276;10.560;2023-06-10T08:02:42;100981.06;;;18.00;72.62
75991;BME280;64673;52.276;10.560;2023-06-10T08:05:07;100979.13;;;17.78;71.81
75991;BME280;64673;52.276;10.560;2023-06-10T08:07:32;100975.84;;;17.90;71.35
75991;BME280;64673;52.276;10.560;2023-06-10T08:09:58;100980.38;;;18.17;71.18
75991;BME280;64673;52.276;10.560;2023-06-10T08:12:23;100993.03;;;18.35;70.88
75991;BME280;64673;52.276;10.560;2023-06-10T08:14:49;100992.75;;;18.59;70.73
75991;BME280;64673;52.276;10.560;2023-06-10T08:17:14;100987.78;;;18.39;70.22
75991;BME280;64673;52.276;10.560;2023-06-10T08:19:39;100979.81;;;18.51;69.25
75991;BME280;64673;52.276;10.560;2023-06-10T08:22:05;100988.38;;;18.36;70.38
75991;BME280;64673;52.276;10.560;2023-06-10T08:24:30;100993.78;;;18.72;70.17
75991;BME280;64673;52.276;10.560;2023-06-10T08:26:56;100992.22;;;18.79;68.55
75991;BME280;64673;52.276;10.560;2023-06-10T08:29:22;100986.56;;;18.76;69.49
75991;BME280;64673;52.276;10.560;2023-06-10T08:31:48;100984.31;;;18.78;69.51
75991;BME280;64673;52.276;10.560;2023-06-10T08:34:13;100982.34;;;19.00;68.92
75991;BME280;64673;52.276;10.560;2023-06-10T08:36:39;100982.88;;;19.20;68.23
75991;BME280;64673;52.276;10.560;2023-06-10T08:39:05;100985.81;;;19.23;67.69
75991;BME280;64673;52.276;10.560;2023-06-10T08:41:35;100984.88;;;19.36;68.44
75991;BME280;64673;52.276;10.560;2023-06-10T08:44:13;100985.38;;;19.38;67.59
75991;BME280;64673;52.276;10.560;2023-06-10T08:46:44;100982.88;;;19.59;67.00
75991;BME280;64673;52.276;10.560;2023-06-10T08:49:10;100975.44;;;19.51;66.84
75991;BME280;64673;52.276;10.560;2023-06-10T08:51:40;100977.41;;;19.59;67.15
75991;BME280;64673;52.276;10.560;2023-06-10T08:54:13;100976.59;;;19.76;68.28
75991;BME280;64673;52.276;10.560;2023-06-10T08:56:40;100981.63;;;20.00;66.39
75991;BME280;64673;52.276;10.560;2023-06-10T08:59:06;100973.88;;;20.10;66.36
75991;BME280;64673;52.276;10.560;2023-06-10T09:01:32;100978.03;;;20.25;66.46
75991;BME280;64673;52.276;10.560;2023-06-10T09:03:59;100969.03;;;20.07;66.18
75991;BME280;64673;52.276;10.560;2023-06-10T09:06:25;100970.63;;;20.52;66.27
75991;BME280;64673;52.276;10.560;2023-06-10T09:08:50;100974.44;;;20.68;65.38
75991;BME280;64673;52.276;10.560;2023-06-10T09:11:16;100968.59;;;20.78;64.83
75991;BME280;64673;52.276;10.560;2023-06-10T09:13:41;100967.69;;;20.65;65.58
75991;BME280;64673;52.276;10.560;2023-06-10T09:16:06;100966.19;;;20.85;65.65
75991;BME280;64673;52.276;10.560;2023-06-10T09:18:32;100960.31;;;20.95;64.67
75991;BME280;64673;52.276;10.560;2023-06-10T09:20:57;100961.84;;;21.13;64.37
75991;BME280;64673;52.276;10.560;2023-06-10T09:23:22;100962.63;;;21.23;64.53
75991;BME280;64673;52.276;10.560;2023-06-10T09:25:56;100964.16;;;21.03;64.89
75991;BME280;64673;52.276;10.560;2023-06-10T09:28:22;100965.84;;;21.25;64.56
75991;BME280;64673;52.276;10.560;2023-06-10T09:30:48;100974.84;;;21.34;63.91
75991;BME280;64673;52.276;10.560;2023-06-10T09:33:14;100969.41;;;21.16;63.84
75991;BME280;64673;52.276;10.560;2023-06-10T09:35:47;100966.28;;;21.35;63.42
75991;BME280;64673;52.276;10.560;2023-06-10T09:38:15;100967.66;;;21.12;65.07
75991;BME280;64673;52.276;10.560;2023-06-10T09:40:54;100958.09;;;21.27;63.58
75991;BME280;64673;52.276;10.560;2023-06-10T09:43:20;100963.22;;;21.37;63.34
75991;BME280;64673;52.276;10.560;2023-06-10T09:45:49;100965.34;;;21.52;62.89
75991;BME280;64673;52.276;10.560;2023-06-10T09:48:14;100957.59;;;21.54;62.65
75991;BME280;64673;52.276;10.560;2023-06-10T09:50:44;100960.00;;;21.55;63.57
75991;BME280;64673;52.276;10.560;2023-06-10T09:53:10;100963.72;;;21.60;62.49
75991;BME280;64673;52.276;10.560;2023-06-10T09:55:38;100956.06;;;21.65;61.65
75991;BME280;64673;52.276;10.560;2023-06-10T09:58:03;100957.69;;;21.66;61.50
75991;BME280;64673;52.276;10.560;2023-06-10T10:00:32;100960.56;;;21.90;62.35
75991;BME280;64673;52.276;10.560;2023-06-10T10:02:58;100949.03;;;21.76;61.64
75991;BME280;64673;52.276;10.560;2023-06-10T10:05:24;100955.59;;;22.05;61.27
75991;BME280;64673;52.276;10.560;2023-06-10T10:07:49;100956.47;;;21.97;59.63
75991;BME280;64673;52.276;10.560;2023-06-10T10:10:17;100955.31;;;21.98;59.93
75991;BME280;64673;52.276;10.560;2023-06-10T10:12:42;100954.00;;;22.04;59.66
75991;BME280;64673;52.276;10.560;2023-06-10T10:15:11;100945.41;;;22.05;60.45
75991;BME280;64673;52.276;10.560;2023-06-10T10:17:44;100950.59;;;22.40;59.91
75991;BME280;64673;52.276;10.560;2023-06-10T10:20:14;100947.25;;;22.46;59.66
75991;BME280;64673;52.276;10.560;2023-06-10T10:22:43;100941.44;;;22.48;61.11
75991;BME280;64673;52.276;10.560;2023-06-10T10:25:16;100946.19;;;22.72;59.12
75991;BME280;64673;52.276;10.560;2023-06-10T10:27:52;100933.28;;;22.39;57.89
75991;BME280;64673;52.276;10.560;2023-06-10T10:30:20;100932.66;;;22.67;58.19
75991;BME280;64673;52.276;10.560;2023-06-10T10:33:08;100939.13;;;22.83;57.12
75991;BME280;64673;52.276;10.560;2023-06-10T10:35:36;100926.06;;;22.92;56.85
75991;BME280;64673;52.276;10.560;2023-06-10T10:38:02;100922.16;;;23.05;57.53
75991;BME280;64673;52.276;10.560;2023-06-10T10:40:28;100926.06;;;23.16;56.51
75991;BME280;64673;52.276;10.560;2023-06-10T10:42:58;100927.28;;;23.31;56.52
75991;BME280;64673;52.276;10.560;2023-06-10T10:45:24;100926.06;;;23.28;55.74
75991;BME280;64673;52.276;10.560;2023-06-10T10:47:53;100928.56;;;23.33;55.49
75991;BME280;64673;52.276;10.560;2023-06-10T10:50:20;100926.72;;;23.38;55.64
75991;BME280;64673;52.276;10.560;2023-06-10T10:52:52;100931.97;;;23.43;55.68
75991;BME280;64673;52.276;10.560;2023-06-10T10:55:19;100921.50;;;23.73;55.58
75991;BME280;64673;52.276;10.560;2023-06-10T10:57:44;100919.56;;;23.73;55.52
75991;BME280;64673;52.276;10.560;2023-06-10T11:00:10;100918.34;;;23.86;54.89
75991;BME280;64673;52.276;10.560;2023-06-10T11:02:44;100913.75;;;23.90;54.73
75991;BME280;64673;52.276;10.560;2023-06-10T11:05:14;100915.31;;;24.19;55.39
75991;BME280;64673;52.276;10.560;2023-06-10T11:07:39;100920.97;;;24.23;52.82
75991;BME280;64673;52.276;10.560;2023-06-10T11:10:10;100920.53;;;23.93;53.88
75991;BME280;64673;52.276;10.560;2023-06-10T11:31:26;100915.16;;;25.03;51.92
75991;BME280;64673;52.276;10.560;2023-06-10T11:34:05;100922.63;;;24.87;51.56
75991;BME280;64673;52.276;10.560;2023-06-10T11:36:32;100906.06;;;24.87;50.78
75991;BME280;64673;52.276;10.560;2023-06-10T11:39:01;100907.19;;;25.17;50.07
75991;BME280;64673;52.276;10.560;2023-06-10T11:41:28;100910.91;;;25.25;50.98
75991;BME280;64673;52.276;10.560;2023-06-10T11:43:54;100904.28;;;25.10;50.96
75991;BME280;64673;52.276;10.560;2023-06-10T11:46:23;100907.31;;;25.05;50.51
75991;BME280;64673;52.276;10.560;2023-06-10T11:48:56;100899.53;;;25.26;49.41
75991;BME280;64673;52.276;10.560;2023-06-10T11:51:24;100898.38;;;25.62;50.95
75991;BME280;64673;52.276;10.560;2023-06-10T11:53:50;100907.81;;;25.45;49.87
75991;BME280;64673;52.276;10.560;2023-06-10T11:56:22;100892.53;;;25.67;50.83
75991;BME280;64673;52.276;10.560;2023-06-10T11:58:56;100896.56;;;25.54;49.19
75991;BME280;64673;52.276;10.560;2023-06-10T12:01:23;100893.28;;;25.29;49.72
75991;BME280;64673;52.276;10.560;2023-06-10T12:04:06;100894.34;;;25.60;49.09
75991;BME280;64673;52.276;10.560;2023-06-10T12:06:40;100893.69;;;25.66;48.63
75991;BME280;64673;52.276;10.560;2023-06-10T12:09:09;100895.34;;;26.09;49.05
75991;BME280;64673;52.276;10.560;2023-06-10T12:11:38;100889.50;;;25.72;48.11
75991;BME280;64673;52.276;10.560;2023-06-10T12:14:05;100893.06;;;25.73;47.98
75991;BME280;64673;52.276;10.560;2023-06-10T12:16:31;100899.75;;;25.91;49.96
75991;BME280;64673;52.276;10.560;2023-06-10T12:19:04;100894.06;;;26.03;48.49
75991;BME280;64673;52.276;10.560;2023-06-10T12:21:32;100889.09;;;26.12;47.37
75991;BME280;64673;52.276;10.560;2023-06-10T12:24:06;100889.56;;;26.18;47.81
75991;BME280;64673;52.276;10.560;2023-06-10T12:26:35;100886.16;;;26.24;47.49
75991;BME280;64673;52.276;10.560;2023-06-10T12:29:17;100891.84;;;26.32;46.77
75991;BME280;64673;52.276;10.560;2023-06-10T12:34:49;100886.78;;;26.60;45.86
75991;BME280;64673;52.276;10.560;2023-06-10T12:37:14;100885.59;;;26.57;45.08
75991;BME280;64673;52.276;10.560;2023-06-10T12:39:41;100885.75;;;26.68;45.15
75991;BME280;64673;52.276;10.560;2023-06-10T12:42:06;100873.44;;;26.88;45.42
75991;BME280;64673;52.276;10.560;2023-06-10T12:44:38;100878.97;;;27.15;45.32
75991;BME280;64673;52.276;10.560;2023-06-10T12:47:07;100864.25;;;27.37;44.16
75991;BME280;64673;52.276;10.560;2023-06-10T12:49:33;100868.38;;;27.50;45.19
75991;BME280;64673;52.276;10.560;2023-06-10T12:52:00;100863.81;;;27.61;44.13
75991;BME280;64673;52.276;10.560;2023-06-10T12:54:26;100859.09;;;27.65;43.48
75991;BME280;64673;52.276;10.560;2023-06-10T12:56:51;100859.41;;;27.94;45.33
75991;BME280;64673;52.276;10.560;2023-06-10T12:59:18;100853.19;;;28.04;42.52
75991;BME280;64673;52.276;10.560;2023-06-10T13:01:43;100856.66;;;28.34;42.38
75991;BME280;64673;52.276;10.560;2023-06-10T13:04:09;100854.13;;;28.19;43.00
75991;BME280;64673;52.276;10.560;2023-06-10T13:06:34;100856.31;;;28.39;43.10